sensor_id;sensor_type;location;lat;lon;timestamp;P1;durP1;ratioP1;P2;durP2;ratioP2
70071;SDS011;57434;42.794;23.302;2023-02-28T00:00:06;18.80;;;7.40;;
70071;SDS011;57434;42.794;23.302;2023-02-28T00:01:08;17.93;;;8.20;;
70071;SDS011;57434;42.794;23.302;2023-02-28T00:02:10;21.02;;;8.32;;
70071;SDS011;57434;42.794;23.302;2023-02-28T00:03:12;19.60;;;8.15;;
70071;SDS011;57434;42.794;23.302;2023-02-28T00:04:15;21.80;;;7.88;;
70071;SDS011;57434;42.794;23.302;2023-02-28T00:05:18;19.77;;;8.15;;
70071;SDS011;57434;42.794;23.302;2023-02-28T00:06:22;21.73;;;8.50;;
70071;SDS011;57434;42.794;23.302;2023-02-28T00:07:24;19.17;;;8.57;;
70071;SDS011;57434;42.794;23.302;2023-02-28T00:08:26;22.85;;;8.50;;
70071;SDS011;57434;42.794;23.302;2023-02-28T00:09:28;16.63;;;7.97;;
70071;SDS011;57434;42.794;23.302;2023-02-28T00:10:31;16.20;;;8.02;;
70071;SDS011;57434;42.794;23.302;2023-02-28T00:11:33;19.07;;;7.97;;
70071;SDS011;57434;42.794;23.302;2023-02-28T00:12:36;17.90;;;7.35;;
70071;SDS011;57434;42.794;23.302;2023-02-28T00:13:40;18.90;;;8.38;;
70071;SDS011;57434;42.794;23.302;2023-02-28T00:14:43;18.50;;;7.57;;
70071;SDS011;57434;42.794;23.302;2023-02-28T00:15:45;17.88;;;7.50;;
70071;SDS011;57434;42.794;23.302;2023-02-28T00:16:47;16.45;;;7.43;;
70071;SDS011;57434;42.794;23.302;2023-02-28T00:17:49;19.15;;;8.10;;
70071;SDS011;57434;42.794;23.302;2023-02-28T00:18:51;17.25;;;7.97;;
70071;SDS011;57434;42.794;23.302;2023-02-28T00:19:53;16.33;;;6.70;;
70071;SDS011;57434;42.794;23.302;2023-02-28T00:20:56;19.85;;;8.05;;
70071;SDS011;57434;42.794;23.302;2023-02-28T00:21:59;18.00;;;7.33;;
70071;SDS011;57434;42.794;23.302;2023-02-28T00:23:01;20.48;;;8.38;;
70071;SDS011;57434;42.794;23.302;2023-02-28T00:24:03;22.08;;;9.30;;
70071;SDS011;57434;42.794;23.302;2023-02-28T00:25:06;21.50;;;9.80;;
70071;SDS011;57434;42.794;23.302;2023-02-28T00:26:08;28.95;;;11.40;;
70071;SDS011;57434;42.794;23.302;2023-02-28T00:27:11;29.42;;;11.90;;
70071;SDS011;57434;42.794;23.302;2023-02-28T00:28:13;27.50;;;11.05;;
70071;SDS011;57434;42.794;23.302;2023-02-28T00:29:15;26.30;;;10.35;;
70071;SDS011;57434;42.794;23.302;2023-02-28T00:30:20;24.50;;;9.10;;
70071;SDS011;57434;42.794;23.302;2023-02-28T00:31:23;23.85;;;9.27;;
70071;SDS011;57434;42.794;23.302;2023-02-28T00:32:26;19.90;;;8.77;;
70071;SDS011;57434;42.794;23.302;2023-02-28T00:33:28;21.17;;;8.85;;
70071;SDS011;57434;42.794;23.302;2023-02-28T00:34:31;23.55;;;9.68;;
70071;SDS011;57434;42.794;23.302;2023-02-28T00:35:33;24.63;;;9.65;;
70071;SDS011;57434;42.794;23.302;2023-02-28T00:39:37;25.17;;;10.70;;
70071;SDS011;57434;42.794;23.302;2023-02-28T00:40:40;25.60;;;10.23;;
70071;SDS011;57434;42.794;23.302;2023-02-28T00:41:42;26.55;;;12.10;;
70071;SDS011;57434;42.794;23.302;2023-02-28T00:42:44;22.90;;;9.98;;
70071;SDS011;57434;42.794;23.302;2023-02-28T00:43:46;26.03;;;11.73;;
70071;SDS011;57434;42.794;23.302;2023-02-28T00:44:48;28.10;;;11.60;;
70071;SDS011;57434;42.794;23.302;2023-02-28T00:45:50;29.95;;;11.80;;
70071;SDS011;57434;42.794;23.302;2023-02-28T00:46:53;22.48;;;9.73;;
70071;SDS011;57434;42.794;23.302;2023-02-28T00:47:55;24.40;;;10.52;;
70071;SDS011;57434;42.794;23.302;2023-02-28T00:48:58;20.00;;;9.07;;
70071;SDS011;57434;42.794;23.302;2023-02-28T00:50:00;22.52;;;9.32;;
70071;SDS011;57434;42.794;23.302;2023-02-28T00:51:03;21.80;;;8.93;;
70071;SDS011;57434;42.794;23.302;2023-02-28T00:52:05;20.80;;;8.43;;
70071;SDS011;57434;42.794;23.302;2023-02-28T00:53:07;20.80;;;8.73;;
70071;SDS011;57434;42.794;23.302;2023-02-28T00:54:09;20.03;;;8.07;;
70071;SDS011;57434;42.794;23.302;2023-02-28T00:55:11;20.05;;;8.63;;
70071;SDS011;57434;42.794;23.302;2023-02-28T00:56:14;18.92;;;7.93;;
70071;SDS011;57434;42.794;23.302;2023-02-28T00:57:16;19.52;;;8.65;;
70071;SDS011;57434;42.794;23.302;2023-02-28T00:58:18;18.95;;;7.43;;
70071;SDS011;57434;42.794;23.302;2023-02-28T00:59:20;19.67;;;7.47;;
70071;SDS011;57434;42.794;23.302;2023-02-28T01:00:22;17.23;;;7.32;;
70071;SDS011;57434;42.794;23.302;2023-02-28T01:01:25;19.48;;;7.78;;
70071;SDS011;57434;42.794;23.302;2023-02-28T01:02:27;18.80;;;7.97;;
70071;SDS011;57434;42.794;23.302;2023-02-28T01:03:29;18.48;;;7.20;;
70071;SDS011;57434;42.794;23.302;2023-02-28T01:04:31;16.77;;;7.17;;
70071;SDS011;57434;42.794;23.302;2023-02-28T01:05:33;17.08;;;7.32;;
70071;SDS011;57434;42.794;23.302;2023-02-28T01:06:42;18.55;;;7.03;;
70071;SDS011;57434;42.794;23.302;2023-02-28T01:07:44;18.80;;;7.68;;
70071;SDS011;57434;42.794;23.302;2023-02-28T01:08:46;20.55;;;7.88;;
70071;SDS011;57434;42.794;23.302;2023-02-28T01:09:48;19.02;;;7.90;;
70071;SDS011;57434;42.794;23.302;2023-02-28T01:10:50;19.33;;;7.25;;
70071;SDS011;57434;42.794;23.302;2023-02-28T01:11:52;17.25;;;7.57;;
70071;SDS011;57434;42.794;23.302;2023-02-28T01:12:54;18.95;;;7.43;;
70071;SDS011;57434;42.794;23.302;2023-02-28T01:13:56;19.15;;;7.85;;
70071;SDS011;57434;42.794;23.302;2023-02-28T01:14:58;18.37;;;7.53;;
70071;SDS011;57434;42.794;23.302;2023-02-28T01:16:01;15.80;;;6.78;;
70071;SDS011;57434;42.794;23.302;2023-02-28T01:17:03;22.67;;;7.45;;
70071;SDS011;57434;42.794;23.302;2023-02-28T01:18:04;17.98;;;7.20;;
70071;SDS011;57434;42.794;23.302;2023-02-28T01:19:07;16.50;;;7.00;;
70071;SDS011;57434;42.794;23.302;2023-02-28T01:20:09;16.50;;;7.85;;
70071;SDS011;57434;42.794;23.302;2023-02-28T01:21:12;21.48;;;8.07;;
70071;SDS011;57434;42.794;23.302;2023-02-28T01:22:17;21.85;;;8.18;;
70071;SDS011;57434;42.794;23.302;2023-02-28T01:23:19;19.40;;;7.45;;
70071;SDS011;57434;42.794;23.302;2023-02-28T01:24:23;18.20;;;7.03;;
70071;SDS011;57434;42.794;23.302;2023-02-28T01:25:25;17.53;;;7.30;;
70071;SDS011;57434;42.794;23.302;2023-02-28T01:26:27;18.13;;;7.53;;
70071;SDS011;57434;42.794;23.302;2023-02-28T01:27:28;19.05;;;8.40;;
70071;SDS011;57434;42.794;23.302;2023-02-28T01:28:30;18.45;;;8.10;;
70071;SDS011;57434;42.794;23.302;2023-02-28T01:29:39;18.65;;;8.30;;
70071;SDS011;57434;42.794;23.302;2023-02-28T01:42:33;18.98;;;8.65;;
70071;SDS011;57434;42.794;23.302;2023-02-28T01:46:23;16.38;;;7.35;;
70071;SDS011;57434;42.794;23.302;2023-02-28T01:47:30;17.88;;;8.48;;
70071;SDS011;57434;42.794;23.302;2023-02-28T01:48:37;15.80;;;6.80;;
70071;SDS011;57434;42.794;23.302;2023-02-28T01:49:41;17.40;;;7.60;;
70071;SDS011;57434;42.794;23.302;2023-02-28T01:50:44;17.08;;;8.05;;
70071;SDS011;57434;42.794;23.302;2023-02-28T01:51:49;19.38;;;9.48;;
70071;SDS011;57434;42.794;23.302;2023-02-28T01:52:54;21.90;;;9.88;;
70071;SDS011;57434;42.794;23.302;2023-02-28T01:54:01;18.63;;;8.48;;
70071;SDS011;57434;42.794;23.302;2023-02-28T01:55:07;18.95;;;9.07;;
70071;SDS011;57434;42.794;23.302;2023-02-28T01:56:11;18.50;;;8.85;;
70071;SDS011;57434;42.794;23.302;2023-02-28T01:57:19;20.30;;;9.38;;
70071;SDS011;57434;42.794;23.302;2023-02-28T01:58:25;19.85;;;8.60;;
70071;SDS011;57434;42.794;23.302;2023-02-28T01:59:33;20.30;;;8.65;;
70071;SDS011;57434;42.794;23.302;2023-02-28T02:00:40;23.20;;;10.10;;
70071;SDS011;57434;42.794;23.302;2023-02-28T02:01:41;26.92;;;10.98;;
70071;SDS011;57434;42.794;23.302;2023-02-28T02:02:45;21.75;;;9.93;;
70071;SDS011;57434;42.794;23.302;2023-02-28T02:03:53;25.23;;;12.30;;
70071;SDS011;57434;42.794;23.302;2023-02-28T02:04:58;24.27;;;12.10;;
70071;SDS011;57434;42.794;23.302;2023-02-28T02:06:04;23.92;;;12.70;;
70071;SDS011;57434;42.794;23.302;2023-02-28T02:07:06;27.52;;;11.07;;
70071;SDS011;57434;42.794;23.302;2023-02-28T02:08:12;22.02;;;10.25;;
70071;SDS011;57434;42.794;23.302;2023-02-28T02:09:21;25.80;;;10.60;;
70071;SDS011;57434;42.794;23.302;2023-02-28T02:11:33;23.33;;;10.73;;
70071;SDS011;57434;42.794;23.302;2023-02-28T02:12:47;21.90;;;9.98;;
70071;SDS011;57434;42.794;23.302;2023-02-28T02:15:37;21.63;;;10.02;;
70071;SDS011;57434;42.794;23.302;2023-02-28T02:18:16;20.90;;;9.07;;
70071;SDS011;57434;42.794;23.302;2023-02-28T02:26:47;20.10;;;7.22;;
70071;SDS011;57434;42.794;23.302;2023-02-28T02:31:16;16.27;;;6.72;;
70071;SDS011;57434;42.794;23.302;2023-02-28T02:32:45;15.25;;;6.20;;
70071;SDS011;57434;42.794;23.302;2023-02-28T02:36:49;19.95;;;6.80;;
70071;SDS011;57434;42.794;23.302;2023-02-28T02:40:35;16.08;;;7.00;;
70071;SDS011;57434;42.794;23.302;2023-02-28T02:42:00;17.88;;;7.55;;
70071;SDS011;57434;42.794;23.302;2023-02-28T02:44:21;17.98;;;7.75;;
70071;SDS011;57434;42.794;23.302;2023-02-28T02:45:38;17.55;;;7.13;;
70071;SDS011;57434;42.794;23.302;2023-02-28T02:46:47;20.40;;;7.90;;
70071;SDS011;57434;42.794;23.302;2023-02-28T02:47:51;18.90;;;7.65;;
70071;SDS011;57434;42.794;23.302;2023-02-28T02:48:54;18.98;;;7.75;;
70071;SDS011;57434;42.794;23.302;2023-02-28T02:50:01;17.30;;;7.78;;
70071;SDS011;57434;42.794;23.302;2023-02-28T02:51:07;19.03;;;8.47;;
70071;SDS011;57434;42.794;23.302;2023-02-28T02:52:16;17.40;;;6.75;;
70071;SDS011;57434;42.794;23.302;2023-02-28T02:53:23;19.27;;;8.65;;
70071;SDS011;57434;42.794;23.302;2023-02-28T02:54:35;21.45;;;9.13;;
70071;SDS011;57434;42.794;23.302;2023-02-28T02:55:40;20.00;;;8.68;;
70071;SDS011;57434;42.794;23.302;2023-02-28T02:56:45;17.52;;;8.23;;
70071;SDS011;57434;42.794;23.302;2023-02-28T02:57:51;20.73;;;9.18;;
70071;SDS011;57434;42.794;23.302;2023-02-28T02:58:59;21.10;;;8.48;;
70071;SDS011;57434;42.794;23.302;2023-02-28T03:00:05;19.77;;;8.82;;
70071;SDS011;57434;42.794;23.302;2023-02-28T03:01:14;19.15;;;8.23;;
70071;SDS011;57434;42.794;23.302;2023-02-28T03:02:20;20.77;;;8.67;;
70071;SDS011;57434;42.794;23.302;2023-02-28T03:03:23;23.13;;;10.23;;
70071;SDS011;57434;42.794;23.302;2023-02-28T03:04:27;19.95;;;7.97;;
70071;SDS011;57434;42.794;23.302;2023-02-28T03:05:36;19.45;;;8.57;;
70071;SDS011;57434;42.794;23.302;2023-02-28T03:06:45;23.90;;;13.65;;
70071;SDS011;57434;42.794;23.302;2023-02-28T03:07:47;25.40;;;14.57;;
70071;SDS011;57434;42.794;23.302;2023-02-28T03:08:49;20.67;;;10.30;;
70071;SDS011;57434;42.794;23.302;2023-02-28T03:09:55;19.50;;;8.73;;
70071;SDS011;57434;42.794;23.302;2023-02-28T03:11:01;17.85;;;9.02;;
70071;SDS011;57434;42.794;23.302;2023-02-28T03:12:06;19.83;;;9.13;;
70071;SDS011;57434;42.794;23.302;2023-02-28T03:13:30;23.40;;;11.00;;
70071;SDS011;57434;42.794;23.302;2023-02-28T03:14:57;21.75;;;8.93;;
70071;SDS011;57434;42.794;23.302;2023-02-28T03:20:07;22.85;;;9.43;;
70071;SDS011;57434;42.794;23.302;2023-02-28T03:21:22;19.92;;;10.45;;
70071;SDS011;57434;42.794;23.302;2023-02-28T03:25:01;21.50;;;8.32;;
70071;SDS011;57434;42.794;23.302;2023-02-28T03:25:54;17.95;;;8.32;;
70071;SDS011;57434;42.794;23.302;2023-02-28T03:29:51;19.98;;;9.73;;
70071;SDS011;57434;42.794;23.302;2023-02-28T03:31:19;18.65;;;7.78;;
70071;SDS011;57434;42.794;23.302;2023-02-28T03:35:11;21.45;;;9.20;;
70071;SDS011;57434;42.794;23.302;2023-02-28T03:36:24;18.23;;;7.15;;
70071;SDS011;57434;42.794;23.302;2023-02-28T03:37:30;18.17;;;8.00;;
70071;SDS011;57434;42.794;23.302;2023-02-28T03:38:36;21.80;;;8.55;;
70071;SDS011;57434;42.794;23.302;2023-02-28T03:39:43;25.10;;;8.43;;
70071;SDS011;57434;42.794;23.302;2023-02-28T03:40:55;20.85;;;8.02;;
70071;SDS011;57434;42.794;23.302;2023-02-28T03:42:12;30.83;;;12.40;;
70071;SDS011;57434;42.794;23.302;2023-02-28T03:43:21;48.55;;;16.45;;
70071;SDS011;57434;42.794;23.302;2023-02-28T03:44:30;42.25;;;18.35;;
70071;SDS011;57434;42.794;23.302;2023-02-28T03:45:36;45.20;;;16.52;;
70071;SDS011;57434;42.794;23.302;2023-02-28T03:46:42;35.83;;;13.98;;
70071;SDS011;57434;42.794;23.302;2023-02-28T03:47:53;29.20;;;13.63;;
70071;SDS011;57434;42.794;23.302;2023-02-28T03:49:03;31.55;;;13.35;;
70071;SDS011;57434;42.794;23.302;2023-02-28T03:51:28;28.67;;;12.17;;
70071;SDS011;57434;42.794;23.302;2023-02-28T03:52:33;27.60;;;12.27;;
70071;SDS011;57434;42.794;23.302;2023-02-28T03:53:41;43.80;;;17.23;;
70071;SDS011;57434;42.794;23.302;2023-02-28T03:54:52;48.33;;;17.27;;
70071;SDS011;57434;42.794;23.302;2023-02-28T03:56:06;43.85;;;15.35;;
70071;SDS011;57434;42.794;23.302;2023-02-28T03:57:18;36.92;;;14.25;;
70071;SDS011;57434;42.794;23.302;2023-02-28T03:59:54;31.00;;;13.98;;
70071;SDS011;57434;42.794;23.302;2023-02-28T04:02:29;32.45;;;14.15;;
70071;SDS011;57434;42.794;23.302;2023-02-28T04:03:31;48.33;;;16.33;;
70071;SDS011;57434;42.794;23.302;2023-02-28T04:04:33;39.55;;;15.20;;
70071;SDS011;57434;42.794;23.302;2023-02-28T04:05:44;36.70;;;13.27;;
70071;SDS011;57434;42.794;23.302;2023-02-28T04:06:51;32.45;;;15.43;;
70071;SDS011;57434;42.794;23.302;2023-02-28T04:07:54;43.78;;;15.70;;
70071;SDS011;57434;42.794;23.302;2023-02-28T04:09:06;35.42;;;13.90;;
70071;SDS011;57434;42.794;23.302;2023-02-28T04:10:11;36.08;;;14.23;;
70071;SDS011;57434;42.794;23.302;2023-02-28T04:12:15;36.17;;;14.88;;
70071;SDS011;57434;42.794;23.302;2023-02-28T04:13:17;33.03;;;14.60;;
70071;SDS011;57434;42.794;23.302;2023-02-28T04:14:19;30.93;;;13.17;;
70071;SDS011;57434;42.794;23.302;2023-02-28T04:15:21;30.00;;;12.88;;
70071;SDS011;57434;42.794;23.302;2023-02-28T04:16:23;25.23;;;12.88;;
70071;SDS011;57434;42.794;23.302;2023-02-28T04:17:35;29.83;;;11.77;;
70071;SDS011;57434;42.794;23.302;2023-02-28T04:18:37;29.08;;;11.48;;
70071;SDS011;57434;42.794;23.302;2023-02-28T04:19:40;28.58;;;11.30;;
70071;SDS011;57434;42.794;23.302;2023-02-28T04:20:42;22.85;;;10.95;;
70071;SDS011;57434;42.794;23.302;2023-02-28T04:21:45;23.55;;;10.10;;
70071;SDS011;57434;42.794;23.302;2023-02-28T04:22:52;22.65;;;9.05;;
70071;SDS011;57434;42.794;23.302;2023-02-28T04:23:54;23.65;;;9.52;;
70071;SDS011;57434;42.794;23.302;2023-02-28T04:24:56;26.60;;;8.93;;
70071;SDS011;57434;42.794;23.302;2023-02-28T04:25:58;20.63;;;8.52;;
70071;SDS011;57434;42.794;23.302;2023-02-28T04:27:00;22.65;;;8.40;;
70071;SDS011;57434;42.794;23.302;2023-02-28T04:28:02;23.75;;;9.15;;
70071;SDS011;57434;42.794;23.302;2023-02-28T04:29:05;30.00;;;9.18;;
70071;SDS011;57434;42.794;23.302;2023-02-28T04:30:07;30.13;;;10.00;;
70071;SDS011;57434;42.794;23.302;2023-02-28T04:31:10;32.97;;;9.65;;
70071;SDS011;57434;42.794;23.302;2023-02-28T04:32:12;29.67;;;10.45;;
70071;SDS011;57434;42.794;23.302;2023-02-28T04:33:14;30.33;;;10.30;;
70071;SDS011;57434;42.794;23.302;2023-02-28T04:34:16;33.00;;;11.00;;
70071;SDS011;57434;42.794;23.302;2023-02-28T04:35:18;39.40;;;10.50;;
70071;SDS011;57434;42.794;23.302;2023-02-28T04:36:19;34.17;;;11.32;;
70071;SDS011;57434;42.794;23.302;2023-02-28T04:37:21;37.30;;;11.38;;
70071;SDS011;57434;42.794;23.302;2023-02-28T04:38:23;36.10;;;11.07;;
70071;SDS011;57434;42.794;23.302;2023-02-28T04:39:25;48.58;;;13.40;;
70071;SDS011;57434;42.794;23.302;2023-02-28T04:40:27;46.17;;;15.02;;
70071;SDS011;57434;42.794;23.302;2023-02-28T04:41:29;55.05;;;15.77;;
70071;SDS011;57434;42.794;23.302;2023-02-28T04:42:33;43.58;;;16.73;;
70071;SDS011;57434;42.794;23.302;2023-02-28T04:43:35;54.13;;;17.75;;
70071;SDS011;57434;42.794;23.302;2023-02-28T04:44:37;49.13;;;16.23;;
70071;SDS011;57434;42.794;23.302;2023-02-28T04:45:38;52.60;;;15.97;;
70071;SDS011;57434;42.794;23.302;2023-02-28T04:46:40;55.63;;;21.50;;
70071;SDS011;57434;42.794;23.302;2023-02-28T04:47:43;46.17;;;16.55;;
70071;SDS011;57434;42.794;23.302;2023-02-28T04:48:44;50.00;;;17.48;;
70071;SDS011;57434;42.794;23.302;2023-02-28T04:49:47;50.75;;;18.95;;
70071;SDS011;57434;42.794;23.302;2023-02-28T04:50:49;49.22;;;17.23;;
70071;SDS011;57434;42.794;23.302;2023-02-28T04:51:50;52.15;;;18.75;;
70071;SDS011;57434;42.794;23.302;2023-02-28T04:52:52;54.00;;;18.60;;
70071;SDS011;57434;42.794;23.302;2023-02-28T04:53:54;42.33;;;15.98;;
70071;SDS011;57434;42.794;23.302;2023-02-28T04:54:56;51.75;;;17.63;;
70071;SDS011;57434;42.794;23.302;2023-02-28T04:55:58;63.23;;;19.37;;
70071;SDS011;57434;42.794;23.302;2023-02-28T04:57:00;58.05;;;17.20;;
70071;SDS011;57434;42.794;23.302;2023-02-28T04:58:01;50.92;;;17.88;;
70071;SDS011;57434;42.794;23.302;2023-02-28T04:59:03;48.47;;;18.52;;
70071;SDS011;57434;42.794;23.302;2023-02-28T05:00:05;56.75;;;18.95;;
70071;SDS011;57434;42.794;23.302;2023-02-28T05:01:19;54.75;;;19.02;;
70071;SDS011;57434;42.794;23.302;2023-02-28T05:02:27;65.85;;;19.13;;
70071;SDS011;57434;42.794;23.302;2023-02-28T05:03:29;50.72;;;19.55;;
70071;SDS011;57434;42.794;23.302;2023-02-28T05:04:31;67.45;;;20.25;;
70071;SDS011;57434;42.794;23.302;2023-02-28T05:05:34;54.72;;;20.30;;
70071;SDS011;57434;42.794;23.302;2023-02-28T05:06:36;69.07;;;19.87;;
70071;SDS011;57434;42.794;23.302;2023-02-28T05:07:40;68.90;;;21.85;;
70071;SDS011;57434;42.794;23.302;2023-02-28T05:08:43;63.55;;;20.33;;
70071;SDS011;57434;42.794;23.302;2023-02-28T05:09:45;56.10;;;20.48;;
70071;SDS011;57434;42.794;23.302;2023-02-28T05:10:47;55.33;;;20.80;;
70071;SDS011;57434;42.794;23.302;2023-02-28T05:11:49;51.88;;;17.42;;
70071;SDS011;57434;42.794;23.302;2023-02-28T05:12:51;49.20;;;17.25;;
70071;SDS011;57434;42.794;23.302;2023-02-28T05:13:53;38.70;;;15.20;;
70071;SDS011;57434;42.794;23.302;2023-02-28T05:14:55;40.20;;;16.70;;
70071;SDS011;57434;42.794;23.302;2023-02-28T05:15:57;67.50;;;21.00;;
70071;SDS011;57434;42.794;23.302;2023-02-28T05:16:59;61.80;;;20.07;;
70071;SDS011;57434;42.794;23.302;2023-02-28T05:18:01;70.40;;;22.55;;
70071;SDS011;57434;42.794;23.302;2023-02-28T05:19:12;98.55;;;25.73;;
70071;SDS011;57434;42.794;23.302;2023-02-28T05:20:13;90.97;;;31.75;;
70071;SDS011;57434;42.794;23.302;2023-02-28T05:22:28;63.97;;;23.70;;
70071;SDS011;57434;42.794;23.302;2023-02-28T05:23:41;61.78;;;22.73;;
70071;SDS011;57434;42.794;23.302;2023-02-28T05:24:43;36.15;;;13.20;;
70071;SDS011;57434;42.794;23.302;2023-02-28T05:25:48;43.47;;;15.20;;
70071;SDS011;57434;42.794;23.302;2023-02-28T05:26:52;45.38;;;14.77;;
70071;SDS011;57434;42.794;23.302;2023-02-28T05:27:55;39.60;;;15.93;;
70071;SDS011;57434;42.794;23.302;2023-02-28T05:28:57;53.38;;;19.77;;
70071;SDS011;57434;42.794;23.302;2023-02-28T05:29:59;40.60;;;17.45;;
70071;SDS011;57434;42.794;23.302;2023-02-28T05:31:00;39.80;;;13.35;;
70071;SDS011;57434;42.794;23.302;2023-02-28T05:32:03;42.08;;;16.15;;
70071;SDS011;57434;42.794;23.302;2023-02-28T05:33:05;48.53;;;14.57;;
70071;SDS011;57434;42.794;23.302;2023-02-28T05:34:07;41.80;;;15.50;;
70071;SDS011;57434;42.794;23.302;2023-02-28T05:35:12;62.33;;;17.52;;
70071;SDS011;57434;42.794;23.302;2023-02-28T05:36:14;54.35;;;17.92;;
70071;SDS011;57434;42.794;23.302;2023-02-28T05:37:16;55.42;;;20.05;;
70071;SDS011;57434;42.794;23.302;2023-02-28T05:38:18;54.90;;;18.63;;
70071;SDS011;57434;42.794;23.302;2023-02-28T05:39:20;49.58;;;17.77;;
70071;SDS011;57434;42.794;23.302;2023-02-28T05:40:22;55.05;;;18.10;;
70071;SDS011;57434;42.794;23.302;2023-02-28T05:41:23;48.38;;;19.20;;
70071;SDS011;57434;42.794;23.302;2023-02-28T05:42:25;54.33;;;17.13;;
70071;SDS011;57434;42.794;23.302;2023-02-28T05:43:27;42.80;;;16.38;;
70071;SDS011;57434;42.794;23.302;2023-02-28T05:44:30;51.88;;;15.88;;
70071;SDS011;57434;42.794;23.302;2023-02-28T05:45:32;58.55;;;14.63;;
70071;SDS011;57434;42.794;23.302;2023-02-28T05:46:34;50.17;;;15.02;;
70071;SDS011;57434;42.794;23.302;2023-02-28T05:47:36;46.67;;;14.70;;
70071;SDS011;57434;42.794;23.302;2023-02-28T05:48:54;46.40;;;15.40;;
70071;SDS011;57434;42.794;23.302;2023-02-28T05:49:56;46.88;;;17.95;;
70071;SDS011;57434;42.794;23.302;2023-02-28T05:50:58;55.40;;;18.60;;
70071;SDS011;57434;42.794;23.302;2023-02-28T05:52:00;36.30;;;15.85;;
70071;SDS011;57434;42.794;23.302;2023-02-28T05:53:07;39.92;;;16.92;;
70071;SDS011;57434;42.794;23.302;2023-02-28T05:54:10;44.42;;;17.33;;
70071;SDS011;57434;42.794;23.302;2023-02-28T05:55:14;31.67;;;12.52;;
70071;SDS011;57434;42.794;23.302;2023-02-28T05:56:16;43.85;;;13.23;;
70071;SDS011;57434;42.794;23.302;2023-02-28T05:57:18;42.90;;;14.27;;
70071;SDS011;57434;42.794;23.302;2023-02-28T05:58:25;52.65;;;13.52;;
70071;SDS011;57434;42.794;23.302;2023-02-28T05:59:27;33.50;;;12.23;;
70071;SDS011;57434;42.794;23.302;2023-02-28T06:00:29;38.00;;;11.85;;
70071;SDS011;57434;42.794;23.302;2023-02-28T06:02:36;38.17;;;11.70;;
70071;SDS011;57434;42.794;23.302;2023-02-28T06:03:39;31.08;;;11.45;;
70071;SDS011;57434;42.794;23.302;2023-02-28T06:04:41;31.10;;;11.18;;
70071;SDS011;57434;42.794;23.302;2023-02-28T06:05:44;30.17;;;12.10;;
70071;SDS011;57434;42.794;23.302;2023-02-28T06:06:46;30.30;;;12.25;;
70071;SDS011;57434;42.794;23.302;2023-02-28T06:07:51;30.13;;;11.10;;
70071;SDS011;57434;42.794;23.302;2023-02-28T06:08:56;40.60;;;20.00;;
70071;SDS011;57434;42.794;23.302;2023-02-28T06:09:58;29.93;;;13.17;;
70071;SDS011;57434;42.794;23.302;2023-02-28T06:11:02;31.23;;;12.75;;
70071;SDS011;57434;42.794;23.302;2023-02-28T06:12:05;28.25;;;11.68;;
70071;SDS011;57434;42.794;23.302;2023-02-28T06:13:09;26.38;;;11.18;;
70071;SDS011;57434;42.794;23.302;2023-02-28T06:14:14;28.60;;;11.52;;
70071;SDS011;57434;42.794;23.302;2023-02-28T06:15:18;25.65;;;11.70;;
70071;SDS011;57434;42.794;23.302;2023-02-28T06:16:21;25.85;;;10.07;;
70071;SDS011;57434;42.794;23.302;2023-02-28T06:17:22;23.45;;;9.98;;
70071;SDS011;57434;42.794;23.302;2023-02-28T06:18:25;24.58;;;10.70;;
70071;SDS011;57434;42.794;23.302;2023-02-28T06:19:28;25.00;;;10.95;;
70071;SDS011;57434;42.794;23.302;2023-02-28T06:20:31;25.73;;;11.10;;
70071;SDS011;57434;42.794;23.302;2023-02-28T06:21:33;25.80;;;12.27;;
70071;SDS011;57434;42.794;23.302;2023-02-28T06:22:36;24.80;;;11.32;;
70071;SDS011;57434;42.794;23.302;2023-02-28T06:23:38;31.48;;;11.63;;
70071;SDS011;57434;42.794;23.302;2023-02-28T06:24:40;27.45;;;11.80;;
70071;SDS011;57434;42.794;23.302;2023-02-28T06:25:44;24.73;;;10.48;;
70071;SDS011;57434;42.794;23.302;2023-02-28T06:26:46;23.17;;;10.75;;
70071;SDS011;57434;42.794;23.302;2023-02-28T06:27:50;27.75;;;11.02;;
70071;SDS011;57434;42.794;23.302;2023-02-28T06:28:53;23.73;;;10.60;;
70071;SDS011;57434;42.794;23.302;2023-02-28T06:29:56;22.55;;;9.68;;
70071;SDS011;57434;42.794;23.302;2023-02-28T06:31:05;25.73;;;10.90;;
70071;SDS011;57434;42.794;23.302;2023-02-28T06:32:27;22.92;;;9.80;;
70071;SDS011;57434;42.794;23.302;2023-02-28T06:33:29;24.58;;;10.10;;
70071;SDS011;57434;42.794;23.302;2023-02-28T06:34:31;24.75;;;9.50;;
70071;SDS011;57434;42.794;23.302;2023-02-28T06:36:59;28.90;;;11.50;;
70071;SDS011;57434;42.794;23.302;2023-02-28T06:38:01;29.77;;;12.57;;
70071;SDS011;57434;42.794;23.302;2023-02-28T06:39:03;35.47;;;15.55;;
70071;SDS011;57434;42.794;23.302;2023-02-28T06:40:05;34.22;;;15.77;;
70071;SDS011;57434;42.794;23.302;2023-02-28T06:42:32;32.27;;;15.60;;
70071;SDS011;57434;42.794;23.302;2023-02-28T06:43:35;34.05;;;15.38;;
70071;SDS011;57434;42.794;23.302;2023-02-28T06:44:39;29.30;;;12.70;;
70071;SDS011;57434;42.794;23.302;2023-02-28T06:45:43;28.77;;;12.73;;
70071;SDS011;57434;42.794;23.302;2023-02-28T06:46:45;29.40;;;11.95;;
70071;SDS011;57434;42.794;23.302;2023-02-28T06:47:47;29.75;;;12.13;;
70071;SDS011;57434;42.794;23.302;2023-02-28T06:48:49;29.75;;;11.90;;
70071;SDS011;57434;42.794;23.302;2023-02-28T06:49:51;32.13;;;12.77;;
70071;SDS011;57434;42.794;23.302;2023-02-28T06:51:09;32.95;;;13.10;;
70071;SDS011;57434;42.794;23.302;2023-02-28T06:52:16;24.95;;;10.60;;
70071;SDS011;57434;42.794;23.302;2023-02-28T06:53:18;28.57;;;12.67;;
70071;SDS011;57434;42.794;23.302;2023-02-28T06:54:31;27.38;;;11.80;;
70071;SDS011;57434;42.794;23.302;2023-02-28T06:57:31;28.20;;;11.07;;
70071;SDS011;57434;42.794;23.302;2023-02-28T06:58:35;28.60;;;12.13;;
70071;SDS011;57434;42.794;23.302;2023-02-28T06:59:37;28.20;;;12.00;;
70071;SDS011;57434;42.794;23.302;2023-02-28T07:00:42;34.97;;;13.85;;
70071;SDS011;57434;42.794;23.302;2023-02-28T07:01:55;35.17;;;15.88;;
70071;SDS011;57434;42.794;23.302;2023-02-28T07:02:57;35.60;;;15.68;;
70071;SDS011;57434;42.794;23.302;2023-02-28T07:03:59;36.63;;;15.13;;
70071;SDS011;57434;42.794;23.302;2023-02-28T07:05:02;34.93;;;14.00;;
70071;SDS011;57434;42.794;23.302;2023-02-28T07:06:05;32.13;;;13.00;;
70071;SDS011;57434;42.794;23.302;2023-02-28T07:07:07;32.92;;;12.98;;
70071;SDS011;57434;42.794;23.302;2023-02-28T07:08:09;33.83;;;13.35;;
70071;SDS011;57434;42.794;23.302;2023-02-28T07:09:13;29.63;;;13.20;;
70071;SDS011;57434;42.794;23.302;2023-02-28T07:10:17;35.30;;;14.02;;
70071;SDS011;57434;42.794;23.302;2023-02-28T07:11:48;32.78;;;13.85;;
70071;SDS011;57434;42.794;23.302;2023-02-28T07:12:51;36.35;;;14.60;;
70071;SDS011;57434;42.794;23.302;2023-02-28T07:13:54;32.17;;;14.30;;
70071;SDS011;57434;42.794;23.302;2023-02-28T07:15:26;29.70;;;13.13;;
70071;SDS011;57434;42.794;23.302;2023-02-28T07:16:42;33.70;;;14.10;;
70071;SDS011;57434;42.794;23.302;2023-02-28T07:17:46;32.63;;;12.15;;